Time;durP1;ratioP1;P1;durP2;ratioP2;P2;SDS_P1;SDS_P2;PMS_P1;PMS_P2;Temp;Humidity;BMP_temperature;BMP_pressure;BME280_temperature;BME280_humidity;BME280_pressure;Samples;Min_cycle;Max_cycle;Signal;HPM_P1;HPM_P2
2022/05/16 00:01:01;;;;;;;0.57;0.57;;;;;;;;;;6126727;23;20006;-71
2022/05/16 00:03:26;;;;;;;0.68;0.68;;;;;;;;;;6126436;23;20006;-71
2022/05/16 00:05:52;;;;;;;0.45;0.30;;;;;;;;;;6126455;23;20345;-71
2022/05/16 00:08:17;;;;;;;0.98;0.70;;;;;;;;;;6125143;23;20442;-71
2022/05/16 00:10:42;;;;;;;0.40;0.40;;;;;;;;;;6126566;23;20085;-71
2022/05/16 00:13:08;;;;;;;0.52;0.40;;;;;;;;;;6125859;23;20006;-71
2022/05/16 00:15:34;;;;;;;1.00;0.60;;;;;;;;;;6126473;23;20298;-70
2022/05/16 00:18:00;;;;;;;0.28;0.28;;;;;;;;;;6127282;23;20013;-70
2022/05/16 00:20:25;;;;;;;12.95;1.15;;;;;;;;;;6128818;23;20006;-71
2022/05/16 00:22:50;;;;;;;0.45;0.45;;;;;;;;;;6128726;23;20030;-70
2022/05/16 00:25:16;;;;;;;0.38;0.38;;;;;;;;;;6128840;23;20272;-71
2022/05/16 00:27:42;;;;;;;0.47;0.45;;;;;;;;;;6152439;23;20367;-71
2022/05/16 00:30:10;;;;;;;0.98;0.90;;;;;;;;;;6128803;23;20394;-71
2022/05/16 00:32:42;;;;;;;1.30;1.15;;;;;;;;;;6128560;23;20013;-71
2022/05/16 00:35:09;;;;;;;0.50;0.50;;;;;;;;;;6128335;23;20037;-71
2022/05/16 00:37:34;;;;;;;0.57;0.57;;;;;;;;;;6128314;23;20073;-70
2022/05/16 00:39:59;;;;;;;0.45;0.45;;;;;;;;;;6128605;23;20041;-71
2022/05/16 00:42:27;;;;;;;1.25;1.15;;;;;;;;;;6127414;23;20001;-71
2022/05/16 00:44:55;;;;;;;0.50;0.50;;;;;;;;;;6126406;23;20012;-71
2022/05/16 00:47:20;;;;;;;0.50;0.50;;;;;;;;;;6126943;23;20002;-71
2022/05/16 00:49:48;;;;;;;1.73;0.30;;;;;;;;;;6128398;23;20076;-71
2022/05/16 00:52:16;;;;;;;1.95;0.85;;;;;;;;;;6127320;23;20005;-71
2022/05/16 00:54:44;;;;;;;0.40;0.40;;;;;;;;;;6128323;23;20006;-71
2022/05/16 00:57:16;;;;;;;1.50;1.00;;;;;;;;;;6128209;23;20029;-71
2022/05/16 00:59:51;;;;;;;1.15;0.88;;;;;;;;;;6127630;23;20025;-71
2022/05/16 01:05:01;;;;;;;1.23;1.13;;;;;;;;;;6127544;23;20020;-72
2022/05/16 01:07:32;;;;;;;0.90;0.60;;;;;;;;;;6127027;23;20334;-71
2022/05/16 01:09:58;;;;;;;1.08;0.90;;;;;;;;;;6127250;23;20378;-72
2022/05/16 01:12:30;;;;;;;0.20;0.20;;;;;;;;;;6151539;23;20002;-72
2022/05/16 01:14:57;;;;;;;0.20;0.20;;;;;;;;;;6151088;23;20037;-71
2022/05/16 01:17:22;;;;;;;1.75;0.98;;;;;;;;;;6127834;23;20065;-71
2022/05/16 01:19:48;;;;;;;0.98;0.57;;;;;;;;;;6127967;23;20010;-71
2022/05/16 01:22:25;;;;;;;0.28;0.28;;;;;;;;;;6126753;23;20003;-70
2022/05/16 01:24:52;;;;;;;0.90;0.75;;;;;;;;;;6127007;23;20012;-72
2022/05/16 01:27:18;;;;;;;1.42;1.05;;;;;;;;;;6128008;23;20546;-71
2022/05/16 01:29:43;;;;;;;0.45;0.45;;;;;;;;;;6126227;23;20009;-72
2022/05/16 01:32:10;;;;;;;0.38;0.30;;;;;;;;;;6127502;23;20005;-72
2022/05/16 01:34:40;;;;;;;0.47;0.47;;;;;;;;;;6127613;23;20345;-71
2022/05/16 01:37:08;;;;;;;0.65;0.65;;;;;;;;;;6127846;23;20107;-72
2022/05/16 01:39:35;;;;;;;3.95;1.73;;;;;;;;;;6128133;23;20014;-72
2022/05/16 01:42:01;;;;;;;0.90;0.73;;;;;;;;;;6127998;23;20080;-72
2022/05/16 01:44:27;;;;;;;0.20;0.20;;;;;;;;;;6126253;23;20044;-71
2022/05/16 01:46:54;;;;;;;0.65;0.65;;;;;;;;;;6127770;23;20016;-71
2022/05/16 01:49:19;;;;;;;0.70;0.57;;;;;;;;;;6127675;23;20077;-72
2022/05/16 01:51:45;;;;;;;3.75;0.85;;;;;;;;;;6126665;23;20415;-71
2022/05/16 01:54:12;;;;;;;0.75;0.75;;;;;;;;;;6127923;23;20060;-71
2022/05/16 01:56:40;;;;;;;0.57;0.50;;;;;;;;;;6127532;23;19998;-72
2022/05/16 01:59:08;;;;;;;1.25;1.05;;;;;;;;;;6127887;23;20425;-72
2022/05/16 02:01:34;;;;;;;0.77;0.50;;;;;;;;;;6125737;23;20040;-72
2022/05/16 02:03:59;;;;;;;0.63;0.63;;;;;;;;;;6127976;23;20401;-72
2022/05/16 02:06:25;;;;;;;3.75;0.47;;;;;;;;;;6126626;23;20005;-72
2022/05/16 02:08:51;;;;;;;0.90;0.80;;;;;;;;;;6128035;23;19998;-71
2022/05/16 02:11:16;;;;;;;2.65;1.63;;;;;;;;;;6127323;23;20006;-71
2022/05/16 02:13:42;;;;;;;0.70;0.47;;;;;;;;;;6127266;23;20006;-73
2022/05/16 02:16:08;;;;;;;0.75;0.40;;;;;;;;;;6127614;23;20080;-72
2022/05/16 02:18:34;;;;;;;0.52;0.52;;;;;;;;;;6126306;23;20017;-71
2022/05/16 02:26:30;;;;;;;2.67;1.58;;;;;;;;;;6127547;23;20021;-72
2022/05/16 02:28:58;;;;;;;0.17;0.17;;;;;;;;;;6127033;23;20002;-72
2022/05/16 02:31:23;;;;;;;5.93;1.33;;;;;;;;;;6126779;23;20096;-72
2022/05/16 02:33:49;;;;;;;0.85;0.38;;;;;;;;;;6128350;23;20410;-72
2022/05/16 02:36:15;;;;;;;0.50;0.50;;;;;;;;;;6126645;23;20366;-72
2022/05/16 02:38:41;;;;;;;0.50;0.50;;;;;;;;;;6127356;23;20405;-73
2022/05/16 02:41:06;;;;;;;1.70;1.45;;;;;;;;;;6126018;23;20045;-72
2022/05/16 02:43:32;;;;;;;1.20;0.77;;;;;;;;;;6127073;23;20031;-72
2022/05/16 02:45:59;;;;;;;0.63;0.63;;;;;;;;;;6126247;23;20006;-72
2022/05/16 02:48:25;;;;;;;0.30;0.30;;;;;;;;;;6127059;23;20002;-72
2022/05/16 02:50:50;;;;;;;1.02;0.93;;;;;;;;;;6126998;23;20358;-72
2022/05/16 02:53:16;;;;;;;0.60;0.60;;;;;;;;;;6127662;23;20097;-72
2022/05/16 02:55:42;;;;;;;2.30;0.70;;;;;;;;;;6127597;23;20013;-71
2022/05/16 02:58:11;;;;;;;0.63;0.63;;;;;;;;;;6126619;23;20006;-71
2022/05/16 03:00:37;;;;;;;0.45;0.35;;;;;;;;;;6127144;23;20005;-72
2022/05/16 03:03:03;;;;;;;0.88;0.88;;;;;;;;;;6126154;23;20006;-72
2022/05/16 03:05:29;;;;;;;0.65;0.65;;;;;;;;;;6127225;23;20002;-71
2022/05/16 03:07:58;;;;;;;1.80;0.45;;;;;;;;;;6127255;23;20012;-71
2022/05/16 03:10:24;;;;;;;1.15;0.80;;;;;;;;;;6127526;23;20012;-71
2022/05/16 03:12:51;;;;;;;0.60;0.60;;;;;;;;;;6127709;23;20001;-72
2022/05/16 03:15:17;;;;;;;1.38;0.52;;;;;;;;;;6125433;23;20010;-72
2022/05/16 03:17:45;;;;;;;0.90;0.90;;;;;;;;;;6127027;23;20358;-72
2022/05/16 03:20:15;;;;;;;2.38;1.75;;;;;;;;;;6125407;23;20001;-71
2022/05/16 03:22:41;;;;;;;0.43;0.40;;;;;;;;;;6102418;23;20001;-72
2022/05/16 03:25:07;;;;;;;0.80;0.32;;;;;;;;;;6125961;23;20009;-71
2022/05/16 03:27:32;;;;;;;0.30;0.30;;;;;;;;;;6127152;23;20025;-72
2022/05/16 03:29:58;;;;;;;0.80;0.80;;;;;;;;;;6127050;23;20048;-71
2022/05/16 03:32:23;;;;;;;1.48;1.27;;;;;;;;;;6126769;23;20010;-71
2022/05/16 03:34:50;;;;;;;1.85;1.42;;;;;;;;;;6126390;23;20049;-71
2022/05/16 03:37:18;;;;;;;0.98;0.93;;;;;;;;;;6150283;23;20044;-71
2022/05/16 03:42:31;;;;;;;1.92;1.30;;;;;;;;;;6126156;23;20016;-71
2022/05/16 03:44:59;;;;;;;0.55;0.50;;;;;;;;;;6125084;23;20002;-71
2022/05/16 03:47:24;;;;;;;1.00;0.77;;;;;;;;;;6125523;23;20081;-71
2022/05/16 03:49:50;;;;;;;0.60;0.60;;;;;;;;;;6101415;23;20006;-71
2022/05/16 03:52:15;;;;;;;0.80;0.80;;;;;;;;;;6150372;23;20089;-71
2022/05/16 03:54:41;;;;;;;0.17;0.17;;;;;;;;;;6151797;23;20419;-72
2022/05/16 03:57:07;;;;;;;1.48;0.50;;;;;;;;;;6127919;23;20033;-71
2022/05/16 03:59:32;;;;;;;0.90;0.85;;;;;;;;;;6128554;23;20002;-71
2022/05/16 04:01:58;;;;;;;0.90;0.75;;;;;;;;;;6128557;23;20026;-71
2022/05/16 04:04:24;;;;;;;0.93;0.90;;;;;;;;;;6128790;23;20341;-71
2022/05/16 04:06:50;;;;;;;1.15;1.08;;;;;;;;;;6127973;23;20001;-71
2022/05/16 04:09:17;;;;;;;1.25;1.15;;;;;;;;;;6128588;23;20016;-71
2022/05/16 04:11:45;;;;;;;0.13;0.13;;;;;;;;;;6128397;23;20026;-71
2022/05/16 04:14:10;;;;;;;0.68;0.32;;;;;;;;;;6126930;23;20010;-71
2022/05/16 04:16:38;;;;;;;1.85;1.17;;;;;;;;;;6128758;23;20472;-71
2022/05/16 04:19:07;;;;;;;1.33;0.68;;;;;;;;;;6128803;23;20296;-71
2022/05/16 04:21:33;;;;;;;1.55;0.98;;;;;;;;;;6127272;23;20010;-71
2022/05/16 04:24:01;;;;;;;1.02;0.40;;;;;;;;;;6127622;23;20089;-71
2022/05/16 04:26:29;;;;;;;0.70;0.60;;;;;;;;;;6128709;23;20076;-72
2022/05/16 04:28:55;;;;;;;0.47;0.47;;;;;;;;;;6126856;23;20002;-72
2022/05/16 04:31:20;;;;;;;0.73;0.73;;;;;;;;;;6128419;23;20006;-71
2022/05/16 04:33:45;;;;;;;0.50;0.45;;;;;;;;;;6128477;23;20006;-72
2022/05/16 04:36:16;;;;;;;0.77;0.68;;;;;;;;;;6128448;23;20056;-73
2022/05/16 04:38:43;;;;;;;0.30;0.30;;;;;;;;;;6128605;23;20302;-72
2022/05/16 04:43:54;;;;;;;1.80;1.13;;;;;;;;;;6128370;23;20428;-72
2022/05/16 04:46:20;;;;;;;0.28;0.22;;;;;;;;;;6128158;23;20005;-71
2022/05/16 04:48:45;;;;;;;0.45;0.45;;;;;;;;;;6128319;23;20064;-72
2022/05/16 04:51:11;;;;;;;0.10;0.10;;;;;;;;;;6128395;23;20309;-72
2022/05/16 04:53:37;;;;;;;0.82;0.73;;;;;;;;;;6127836;23;20012;-72
2022/05/16 04:56:04;;;;;;;0.25;0.25;;;;;;;;;;6127278;23;20010;-72
2022/05/16 04:58:33;;;;;;;0.45;0.45;;;;;;;;;;6151382;23;20006;-72
2022/05/16 05:00:59;;;;;;;0.95;0.55;;;;;;;;;;6150849;23;19998;-72
2022/05/16 05:03:24;;;;;;;1.10;1.00;;;;;;;;;;6102510;23;20418;-72
2022/05/16 05:05:50;;;;;;;5.78;1.15;;;;;;;;;;6127792;23;20088;-72
2022/05/16 05:08:15;;;;;;;1.45;1.13;;;;;;;;;;6127852;23;20013;-72
2022/05/16 05:16:16;;;;;;;2.75;1.70;;;;;;;;;;6128159;23;20090;-71
2022/05/16 05:18:42;;;;;;;0.65;0.60;;;;;;;;;;6127108;23;20470;-72
2022/05/16 05:21:08;;;;;;;0.63;0.55;;;;;;;;;;6128565;23;20025;-72
2022/05/16 05:23:34;;;;;;;0.85;0.85;;;;;;;;;;6128123;23;20005;-72
2022/05/16 05:26:04;;;;;;;0.50;0.50;;;;;;;;;;6126232;23;20012;-72
2022/05/16 05:28:29;;;;;;;0.70;0.70;;;;;;;;;;6151042;23;20037;-72
2022/05/16 05:30:59;;;;;;;0.93;0.70;;;;;;;;;;6127016;23;20302;-71
2022/05/16 05:33:27;;;;;;;4.30;1.55;;;;;;;;;;6127116;23;20013;-71
2022/05/16 05:35:53;;;;;;;2.38;0.98;;;;;;;;;;6126903;23;20001;-71
2022/05/16 05:38:18;;;;;;;0.47;0.47;;;;;;;;;;6126492;23;20013;-72
2022/05/16 05:40:44;;;;;;;2.33;1.25;;;;;;;;;;6128027;23;20012;-72
2022/05/16 05:43:10;;;;;;;0.60;0.60;;;;;;;;;;6128367;23;20025;-72
2022/05/16 05:45:36;;;;;;;0.70;0.70;;;;;;;;;;6127163;23;20001;-72
2022/05/16 05:48:05;;;;;;;2.35;1.83;;;;;;;;;;6151198;23;20354;-72
2022/05/16 05:50:32;;;;;;;1.15;0.60;;;;;;;;;;6127793;23;19998;-72
2022/05/16 05:52:58;;;;;;;1.48;1.02;;;;;;;;;;6128056;23;20095;-72
2022/05/16 05:55:23;;;;;;;0.93;0.80;;;;;;;;;;6127869;23;20321;-71
2022/05/16 05:57:49;;;;;;;1.92;0.90;;;;;;;;;;6127704;23;20005;-71
2022/05/16 06:00:19;;;;;;;0.75;0.75;;;;;;;;;;6102204;23;20009;-72
2022/05/16 06:02:44;;;;;;;0.40;0.40;;;;;;;;;;6127008;23;20088;-72
2022/05/16 06:05:14;;;;;;;0.55;0.55;;;;;;;;;;6150475;23;20006;-72
2022/05/16 06:07:40;;;;;;;0.77;0.68;;;;;;;;;;6151097;23;19998;-72
2022/05/16 06:10:06;;;;;;;0.70;0.68;;;;;;;;;;6126957;23;20338;-72
2022/05/16 06:12:31;;;;;;;1.08;0.98;;;;;;;;;;6150553;23;20070;-72
2022/05/16 06:14:57;;;;;;;0.32;0.30;;;;;;;;;;6126600;23;20022;-72
2022/05/16 06:17:22;;;;;;;1.25;0.50;;;;;;;;;;6127553;23;20037;-72
2022/05/16 06:19:48;;;;;;;0.88;0.75;;;;;;;;;;6127214;23;20001;-72
2022/05/16 06:22:13;;;;;;;1.60;1.20;;;;;;;;;;6127260;23;20005;-72
2022/05/16 06:27:23;;;;;;;1.95;0.63;;;;;;;;;;6127467;23;20481;-72
2022/05/16 06:29:48;;;;;;;6.45;0.63;;;;;;;;;;6126718;23;20037;-72
2022/05/16 06:32:16;;;;;;;0.45;0.45;;;;;;;;;;6126703;23;20033;-72
2022/05/16 06:34:41;;;;;;;9.68;0.82;;;;;;;;;;6126329;23;20010;-72
2022/05/16 06:37:09;;;;;;;7.57;0.57;;;;;;;;;;6127349;23;20394;-71
2022/05/16 06:39:36;;;;;;;0.32;0.32;;;;;;;;;;6127657;23;20016;-72
2022/05/16 06:42:01;;;;;;;0.60;0.50;;;;;;;;;;6127320;23;20433;-72
2022/05/16 06:44:28;;;;;;;2.20;1.17;;;;;;;;;;6127001;23;20006;-73
2022/05/16 06:46:56;;;;;;;0.45;0.45;;;;;;;;;;6127579;23;20006;-72
2022/05/16 06:49:22;;;;;;;4.40;1.20;;;;;;;;;;6128203;23;20484;-72
2022/05/16 06:51:47;;;;;;;1.63;1.10;;;;;;;;;;6126256;23;20014;-73
2022/05/16 06:54:12;;;;;;;5.22;1.45;;;;;;;;;;6101393;23;20009;-73
2022/05/16 06:56:38;;;;;;;1.45;0.93;;;;;;;;;;6127148;23;20029;-72
2022/05/16 06:59:06;;;;;;;2.83;2.05;;;;;;;;;;6126964;23;20410;-72
2022/05/16 07:01:31;;;;;;;4.25;1.55;;;;;;;;;;6126287;23;20006;-72
2022/05/16 07:03:57;;;;;;;0.90;0.77;;;;;;;;;;6125970;23;20006;-72
2022/05/16 07:06:22;;;;;;;1.55;1.08;;;;;;;;;;6127419;23;20033;-72
2022/05/16 07:08:47;;;;;;;1.00;0.95;;;;;;;;;;6126085;23;20406;-72
2022/05/16 07:11:13;;;;;;;3.08;1.30;;;;;;;;;;6126753;23;20089;-72
2022/05/16 07:13:38;;;;;;;0.55;0.50;;;;;;;;;;6126156;23;20407;-72
2022/05/16 07:16:06;;;;;;;1.13;0.80;;;;;;;;;;6126166;23;20084;-72
2022/05/16 07:18:36;;;;;;;3.97;1.80;;;;;;;;;;6127423;23;20006;-71
2022/05/16 07:21:03;;;;;;;0.93;0.85;;;;;;;;;;6127685;23;20506;-71
2022/05/16 07:23:29;;;;;;;5.93;1.63;;;;;;;;;;6127078;23;20402;-71
2022/05/16 07:28:38;;;;;;;1.08;0.43;;;;;;;;;;6127679;23;20410;-72
2022/05/16 07:31:04;;;;;;;2.15;1.13;;;;;;;;;;6127270;23;20005;-73
2022/05/16 07:33:30;;;;;;;0.47;0.47;;;;;;;;;;6128409;23;20002;-72
2022/05/16 07:35:55;;;;;;;0.55;0.50;;;;;;;;;;6127728;23;20012;-72
2022/05/16 07:38:22;;;;;;;0.60;0.60;;;;;;;;;;6127236;23;20025;-72
2022/05/16 07:40:48;;;;;;;0.17;0.17;;;;;;;;;;6151389;23;20016;-72
2022/05/16 07:43:14;;;;;;;0.43;0.43;;;;;;;;;;6127416;23;20037;-72
2022/05/16 07:45:39;;;;;;;0.47;0.47;;;;;;;;;;6127694;23;20010;-72
2022/05/16 07:48:07;;;;;;;0.55;0.55;;;;;;;;;;6129205;23;20002;-72
2022/05/16 07:50:39;;;;;;;0.50;0.47;;;;;;;;;;6128151;23;20357;-72
2022/05/16 07:53:11;;;;;;;3.92;0.70;;;;;;;;;;6127911;23;20291;-72
2022/05/16 07:55:37;;;;;;;1.35;0.50;;;;;;;;;;6151463;23;20005;-73
2022/05/16 07:58:02;;;;;;;0.55;0.47;;;;;;;;;;6128898;23;20002;-72
2022/05/16 08:00:28;;;;;;;2.40;0.50;;;;;;;;;;6129052;23;20013;-72
2022/05/16 08:02:56;;;;;;;0.73;0.73;;;;;;;;;;6128744;23;20017;-72
2022/05/16 08:05:24;;;;;;;2.47;1.33;;;;;;;;;;6127668;23;20299;-72
2022/05/16 08:10:35;;;;;;;0.40;0.40;;;;;;;;;;6128709;23;20080;-71
2022/05/16 08:13:06;;;;;;;2.33;0.50;;;;;;;;;;6128433;23;20068;-71
2022/05/16 08:15:35;;;;;;;0.60;0.40;;;;;;;;;;6129056;23;20002;-72
2022/05/16 08:18:02;;;;;;;1.02;0.73;;;;;;;;;;6152204;23;20002;-72
2022/05/16 08:20:28;;;;;;;1.67;0.88;;;;;;;;;;6128996;23;20005;-72
2022/05/16 08:22:53;;;;;;;0.35;0.35;;;;;;;;;;6127500;23;20041;-72
2022/05/16 08:25:19;;;;;;;1.42;0.50;;;;;;;;;;6128684;23;20567;-72
2022/05/16 08:27:50;;;;;;;0.52;0.52;;;;;;;;;;6152107;23;20061;-72
2022/05/16 08:30:16;;;;;;;3.90;0.63;;;;;;;;;;6128905;23;20006;-72
2022/05/16 08:32:42;;;;;;;1.83;0.40;;;;;;;;;;6127598;23;20425;-72
2022/05/16 08:35:09;;;;;;;0.25;0.25;;;;;;;;;;6128551;23;20383;-72
2022/05/16 08:40:20;;;;;;;1.77;0.65;;;;;;;;;;6127983;23;20020;-72
2022/05/16 08:42:50;;;;;;;0.25;0.25;;;;;;;;;;6153945;23;20014;-72
2022/05/16 08:45:24;;;;;;;0.22;0.22;;;;;;;;;;6128410;23;20029;-72
2022/05/16 08:47:58;;;;;;;3.60;1.45;;;;;;;;;;6128522;23;20021;-72
2022/05/16 08:50:46;;;;;;;0.73;0.60;;;;;;;;;;6128633;23;20006;-72
2022/05/16 08:53:24;;;;;;;0.90;0.75;;;;;;;;;;6127116;23;20130;-72
2022/05/16 08:55:52;;;;;;;0.20;0.20;;;;;;;;;;6127480;23;20069;-72
2022/05/16 08:58:39;;;;;;;2.20;0.68;;;;;;;;;;6126985;23;20002;-72
2022/05/16 09:01:08;;;;;;;0.55;0.50;;;;;;;;;;6127924;23;20002;-72
2022/05/16 09:04:18;;;;;;;1.52;0.70;;;;;;;;;;6127302;23;20010;-73
2022/05/16 09:07:02;;;;;;;1.38;1.02;;;;;;;;;;6067893;23;20017;-72
2022/05/16 09:10:12;;;;;;;2.63;0.98;;;;;;;;;;6119618;23;20025;-72
2022/05/16 09:12:40;;;;;;;0.65;0.60;;;;;;;;;;6127621;23;20028;-72
2022/05/16 09:15:30;;;;;;;3.17;0.60;;;;;;;;;;6127714;23;20009;-72
2022/05/16 09:17:55;;;;;;;0.50;0.50;;;;;;;;;;6127557;23;20029;-72
2022/05/16 09:20:42;;;;;;;0.73;0.73;;;;;;;;;;6127887;23;20283;-72
2022/05/16 09:23:23;;;;;;;1.40;0.75;;;;;;;;;;6127034;23;20006;-74
2022/05/16 09:26:00;;;;;;;0.65;0.60;;;;;;;;;;6127646;23;20017;-73
2022/05/16 09:28:35;;;;;;;4.07;2.40;;;;;;;;;;6127588;23;20076;-76
2022/05/16 09:31:17;;;;;;;0.30;0.22;;;;;;;;;;6126784;23;20013;-76
2022/05/16 09:33:54;;;;;;;0.43;0.43;;;;;;;;;;6128132;23;20001;-76
2022/05/16 09:36:37;;;;;;;1.95;0.65;;;;;;;;;;6128099;23;20005;-75
2022/05/16 09:39:04;;;;;;;1.27;0.68;;;;;;;;;;6128130;23;20001;-76
2022/05/16 09:41:43;;;;;;;0.35;0.35;;;;;;;;;;6126405;23;20025;-76
2022/05/16 09:44:21;;;;;;;0.52;0.40;;;;;;;;;;6102420;23;19998;-76
2022/05/16 09:46:50;;;;;;;1.60;1.08;;;;;;;;;;6127956;23;20013;-75
2022/05/16 09:49:21;;;;;;;3.35;1.27;;;;;;;;;;6151187;23;20009;-76
2022/05/16 09:51:53;;;;;;;1.60;0.90;;;;;;;;;;6127895;23;20081;-76
2022/05/16 09:54:28;;;;;;;5.22;1.10;;;;;;;;;;6126504;23;20033;-76
2022/05/16 09:57:19;;;;;;;0.57;0.45;;;;;;;;;;6127055;23;20029;-76
2022/05/16 09:59:54;;;;;;;0.25;0.25;;;;;;;;;;6150826;23;20056;-76
2022/05/16 10:02:26;;;;;;;2.85;0.82;;;;;;;;;;6126502;23;20005;-75
2022/05/16 10:04:56;;;;;;;0.50;0.43;;;;;;;;;;6151064;23;20002;-74
2022/05/16 10:07:29;;;;;;;1.60;1.27;;;;;;;;;;6149352;23;19998;-75
2022/05/16 10:09:58;;;;;;;0.93;0.70;;;;;;;;;;6125989;23;20001;-76
2022/05/16 10:12:32;;;;;;;0.90;0.65;;;;;;;;;;6102049;23;20009;-75
2022/05/16 10:15:00;;;;;;;0.70;0.70;;;;;;;;;;6123617;23;20014;-75
2022/05/16 10:17:30;;;;;;;0.70;0.60;;;;;;;;;;6126013;23;20410;-74
2022/05/16 10:20:46;;;;;;;0.65;0.50;;;;;;;;;;6126446;23;20414;-74
2022/05/16 10:23:22;;;;;;;1.88;0.20;;;;;;;;;;6066791;23;20007;-74
2022/05/16 10:25:49;;;;;;;0.70;0.70;;;;;;;;;;6067026;23;20094;-75
2022/05/16 10:28:19;;;;;;;0.55;0.55;;;;;;;;;;6042440;23;20014;-75
2022/05/16 10:33:35;;;;;;;0.30;0.30;;;;;;;;;;6067699;23;20021;-75
2022/05/16 10:36:25;;;;;;;0.17;0.17;;;;;;;;;;6066740;23;20010;-75
2022/05/16 10:39:03;;;;;;;1.08;0.63;;;;;;;;;;6043716;23;20019;-76
2022/05/16 10:41:35;;;;;;;0.90;0.75;;;;;;;;;;6041904;23;20025;-78
2022/05/16 10:44:08;;;;;;;;;;;;;;;;;;6067421;23;20033;-78
2022/05/16 10:46:36;;;;;;;1.08;0.85;;;;;;;;;;6066164;23;19969;-77
2022/05/16 10:49:17;;;;;;;2.00;0.90;;;;;;;;;;6041972;23;20310;-77
2022/05/16 10:52:01;;;;;;;0.40;0.28;;;;;;;;;;6042703;23;20090;-76
2022/05/16 10:54:29;;;;;;;1.73;0.73;;;;;;;;;;6043107;23;20080;-77
2022/05/16 10:57:14;;;;;;;0.57;0.57;;;;;;;;;;6096585;23;20355;-76
2022/05/16 10:59:44;;;;;;;1.13;0.77;;;;;;;;;;6127147;23;20085;-77
2022/05/16 11:02:24;;;;;;;1.20;0.95;;;;;;;;;;6100902;23;20001;-75
2022/05/16 11:05:12;;;;;;;3.92;0.93;;;;;;;;;;6127356;23;20006;-77
2022/05/16 11:08:14;;;;;;;0.75;0.75;;;;;;;;;;6126977;23;20002;-76
2022/05/16 11:11:08;;;;;;;0.50;0.50;;;;;;;;;;6127084;23;20006;-76
2022/05/16 11:13:45;;;;;;;0.77;0.77;;;;;;;;;;6121038;23;20009;-80
2022/05/16 11:16:13;;;;;;;1.80;1.02;;;;;;;;;;6126414;23;20002;-78
2022/05/16 11:18:48;;;;;;;1.20;0.70;;;;;;;;;;6125907;23;20002;-79
2022/05/16 11:21:25;;;;;;;0.30;0.30;;;;;;;;;;6149773;23;20001;-79
2022/05/16 11:24:02;;;;;;;0.28;0.28;;;;;;;;;;6126631;23;20061;-80
2022/05/16 11:26:49;;;;;;;1.17;0.65;;;;;;;;;;6101783;23;20582;-80
2022/05/16 11:29:45;;;;;;;1.27;0.65;;;;;;;;;;6126565;23;20133;-80
2022/05/16 11:32:32;;;;;;;1.00;0.30;;;;;;;;;;6126442;23;20002;-82
2022/05/16 11:35:24;;;;;;;1.83;1.35;;;;;;;;;;6125276;23;20397;-82
2022/05/16 11:38:08;;;;;;;1.75;0.93;;;;;;;;;;6120920;23;20290;-82
2022/05/16 11:40:37;;;;;;;0.63;0.50;;;;;;;;;;6126601;23;20013;-80
2022/05/16 11:43:07;;;;;;;1.85;0.70;;;;;;;;;;6125743;23;20018;-82
2022/05/16 11:45:54;;;;;;;1.48;1.05;;;;;;;;;;6126099;23;20013;-79
2022/05/16 11:48:32;;;;;;;3.88;0.80;;;;;;;;;;6126826;23;20149;-80
2022/05/16 11:51:13;;;;;;;0.20;0.20;;;;;;;;;;6125950;23;20006;-82
2022/05/16 11:53:44;;;;;;;0.25;0.25;;;;;;;;;;6129095;23;20413;-84
2022/05/16 12:02:19;;;;;;;0.20;0.20;;;;;;;;;;6126865;23;20021;-78
2022/05/16 12:04:48;;;;;;;1.50;1.08;;;;;;;;;;6127184;23;20454;-83
2022/05/16 12:07:33;;;;;;;0.45;0.45;;;;;;;;;;6101055;23;20014;-81
2022/05/16 12:10:02;;;;;;;0.65;0.55;;;;;;;;;;6150482;23;20522;-80
2022/05/16 12:12:38;;;;;;;0.85;0.68;;;;;;;;;;6127240;23;20305;-82
2022/05/16 12:15:15;;;;;;;0.63;0.50;;;;;;;;;;6151154;23;20005;-79
2022/05/16 12:17:49;;;;;;;0.40;0.40;;;;;;;;;;6126681;23;20093;-78
2022/05/16 12:20:15;;;;;;;4.47;1.35;;;;;;;;;;6128302;23;20081;-79
2022/05/16 12:22:43;;;;;;;0.93;0.68;;;;;;;;;;6152113;23;20037;-79
2022/05/16 12:25:28;;;;;;;1.60;0.77;;;;;;;;;;6128706;23;20001;-78
2022/05/16 12:28:23;;;;;;;0.63;0.30;;;;;;;;;;6128779;23;20002;-79
2022/05/16 12:30:58;;;;;;;0.35;0.35;;;;;;;;;;6128021;23;20021;-78
2022/05/16 12:33:23;;;;;;;0.90;0.73;;;;;;;;;;6127308;23;20002;-78
2022/05/16 12:35:53;;;;;;;2.03;1.25;;;;;;;;;;6128358;23;20009;-78
2022/05/16 12:38:19;;;;;;;1.10;0.60;;;;;;;;;;6128758;23;20001;-78
2022/05/16 12:40:56;;;;;;;2.53;0.80;;;;;;;;;;6127480;23;20314;-78
2022/05/16 12:43:57;;;;;;;0.93;0.68;;;;;;;;;;6127497;23;20038;-77
2022/05/16 12:46:44;;;;;;;2.33;0.65;;;;;;;;;;6128304;23;20280;-78
2022/05/16 12:49:27;;;;;;;0.47;0.47;;;;;;;;;;6128456;23;20299;-78
2022/05/16 12:52:11;;;;;;;1.73;1.02;;;;;;;;;;6128482;23;20385;-78
2022/05/16 12:55:09;;;;;;;1.30;0.88;;;;;;;;;;6128423;23;20013;-78
2022/05/16 12:57:55;;;;;;;1.63;1.13;;;;;;;;;;6128456;23;20064;-77
2022/05/16 13:00:38;;;;;;;0.40;0.40;;;;;;;;;;6128480;23;20062;-78
2022/05/16 13:03:22;;;;;;;0.95;0.60;;;;;;;;;;6127953;23;20349;-77
2022/05/16 13:06:02;;;;;;;0.70;0.70;;;;;;;;;;6128200;23;20272;-77
2022/05/16 13:08:45;;;;;;;0.65;0.50;;;;;;;;;;6127213;23;20010;-77
2022/05/16 13:11:34;;;;;;;0.50;0.50;;;;;;;;;;6127235;23;20006;-77
2022/05/16 13:14:19;;;;;;;1.42;1.00;;;;;;;;;;6127892;23;20006;-77
2022/05/16 13:16:55;;;;;;;1.08;0.63;;;;;;;;;;6127501;23;20002;-78
2022/05/16 13:19:24;;;;;;;0.95;0.47;;;;;;;;;;6126401;23;20002;-78
2022/05/16 13:21:51;;;;;;;1.77;1.17;;;;;;;;;;6125935;23;20082;-77
2022/05/16 13:24:20;;;;;;;0.50;0.50;;;;;;;;;;6126326;23;20041;-77
2022/05/16 13:32:29;;;;;;;0.65;0.65;;;;;;;;;;6128221;23;20100;-78
2022/05/16 13:35:04;;;;;;;2.33;1.45;;;;;;;;;;6126777;23;20009;-77
2022/05/16 13:37:40;;;;;;;1.23;0.85;;;;;;;;;;6126421;23;20016;-77
2022/05/16 13:40:09;;;;;;;0.60;0.60;;;;;;;;;;6126759;23;20294;-77
2022/05/16 13:42:43;;;;;;;0.65;0.47;;;;;;;;;;6150698;23;20081;-78
2022/05/16 13:45:09;;;;;;;0.50;0.50;;;;;;;;;;6127768;23;20374;-81
2022/05/16 13:47:44;;;;;;;1.00;0.63;;;;;;;;;;6127034;23;19997;-77
2022/05/16 13:50:20;;;;;;;0.57;0.57;;;;;;;;;;6150121;23;20016;-78
2022/05/16 13:52:47;;;;;;;0.47;0.32;;;;;;;;;;6127739;23;20128;-79
2022/05/16 13:55:15;;;;;;;0.93;0.50;;;;;;;;;;6127295;23;20014;-78
2022/05/16 13:57:41;;;;;;;5.93;2.05;;;;;;;;;;6102060;23;20306;-77
2022/05/16 14:00:29;;;;;;;1.35;1.17;;;;;;;;;;6101720;23;20002;-78
2022/05/16 14:02:57;;;;;;;0.57;0.57;;;;;;;;;;6126596;23;20266;-77
2022/05/16 14:05:52;;;;;;;1.13;1.02;;;;;;;;;;6127062;23;20009;-77
2022/05/16 14:08:40;;;;;;;1.08;0.85;;;;;;;;;;6108062;23;20006;-77
2022/05/16 14:11:09;;;;;;;1.75;0.85;;;;;;;;;;6126300;23;20006;-76
2022/05/16 14:13:40;;;;;;;1.95;1.02;;;;;;;;;;6125772;23;20006;-78
2022/05/16 14:16:13;;;;;;;2.38;0.60;;;;;;;;;;6149986;23;20040;-77
2022/05/16 14:18:38;;;;;;;1.95;1.45;;;;;;;;;;6149696;23;20006;-78
2022/05/16 14:21:21;;;;;;;3.40;1.50;;;;;;;;;;6124569;23;20006;-76
2022/05/16 14:23:58;;;;;;;1.60;1.08;;;;;;;;;;6125969;23;20019;-78
2022/05/16 14:26:43;;;;;;;0.85;0.82;;;;;;;;;;6126724;23;20002;-76
2022/05/16 14:29:35;;;;;;;1.00;0.98;;;;;;;;;;6127346;23;20009;-77
2022/05/16 14:32:02;;;;;;;;;;;;;;;;;;6128051;23;20480;-76
2022/05/16 14:34:27;;;;;;;1.20;1.10;;;;;;;;;;6127107;23;19904;-75
2022/05/16 14:37:03;;;;;;;2.72;2.50;;;;;;;;;;6127512;23;20092;-76
2022/05/16 14:39:30;;;;;;;1.55;1.25;;;;;;;;;;6126422;23;20062;-77
2022/05/16 14:42:08;;;;;;;2.88;1.42;;;;;;;;;;6101869;23;20005;-77
2022/05/16 14:44:54;;;;;;;0.77;0.77;;;;;;;;;;6127681;23;20001;-77
2022/05/16 14:47:32;;;;;;;1.80;0.90;;;;;;;;;;6101826;23;20323;-78
2022/05/16 14:49:58;;;;;;;1.60;1.15;;;;;;;;;;6126002;23;20388;-77
2022/05/16 14:52:29;;;;;;;0.47;0.47;;;;;;;;;;6125918;23;20022;-78
2022/05/16 14:54:59;;;;;;;1.70;0.93;;;;;;;;;;6127497;23;20013;-78
2022/05/16 14:57:27;;;;;;;0.75;0.55;;;;;;;;;;6102167;23;20033;-77
2022/05/16 14:59:52;;;;;;;0.40;0.30;;;;;;;;;;6127754;23;20006;-77
2022/05/16 15:05:02;;;;;;;0.80;0.63;;;;;;;;;;6127193;23;20094;-78
2022/05/16 15:07:27;;;;;;;0.40;0.40;;;;;;;;;;6126535;23;20076;-77
2022/05/16 15:09:53;;;;;;;2.80;1.05;;;;;;;;;;6126004;23;20360;-78
2022/05/16 15:12:19;;;;;;;1.38;0.95;;;;;;;;;;6127111;23;20065;-79
2022/05/16 15:14:44;;;;;;;1.10;1.02;;;;;;;;;;6150615;23;20021;-80
2022/05/16 15:17:13;;;;;;;0.65;0.57;;;;;;;;;;6101712;23;20002;-82
2022/05/16 15:19:41;;;;;;;8.48;2.17;;;;;;;;;;6126876;23;20017;-83
2022/05/16 15:22:08;;;;;;;1.73;0.85;;;;;;;;;;6102239;23;19998;-80
2022/05/16 15:24:51;;;;;;;3.33;0.85;;;;;;;;;;6126331;23;20402;-82
2022/05/16 15:27:16;;;;;;;1.05;0.93;;;;;;;;;;6126121;23;20010;-83
2022/05/16 15:29:45;;;;;;;1.10;1.00;;;;;;;;;;6126457;23;20081;-83
2022/05/16 15:32:12;;;;;;;0.82;0.75;;;;;;;;;;6125315;23;20462;-82
2022/05/16 15:34:39;;;;;;;0.80;0.80;;;;;;;;;;6125849;23;20487;-81
2022/05/16 15:37:19;;;;;;;0.90;0.65;;;;;;;;;;6126515;23;20065;-82
2022/05/16 15:39:49;;;;;;;1.90;0.85;;;;;;;;;;6127142;23;20080;-80
2022/05/16 15:42:21;;;;;;;1.02;0.77;;;;;;;;;;6127205;23;20009;-78
2022/05/16 15:44:47;;;;;;;1.38;1.27;;;;;;;;;;6127166;23;20006;-77
2022/05/16 15:47:18;;;;;;;2.80;1.08;;;;;;;;;;6125565;23;20012;-79
2022/05/16 15:49:46;;;;;;;2.95;1.02;;;;;;;;;;6128181;23;20006;-76
2022/05/16 15:52:13;;;;;;;1.33;1.23;;;;;;;;;;6128088;23;20006;-81